Time;durP1;ratioP1;P1;durP2;ratioP2;P2;SDS_P1;SDS_P2;PMS_P1;PMS_P2;Temp;Humidity;BMP_temperature;BMP_pressure;BME280_temperature;BME280_humidity;BME280_pressure;Samples;Min_cycle;Max_cycle;Signal;HPM_P1;HPM_P2
2022/10/29 00:01:01;;;;;;;63.10;57.30;;;;;;;13.34;70.08;100878.62;108673;1278;21946;-84
2022/10/29 00:03:38;;;;;;;54.80;49.50;;;;;;;13.33;69.96;100875.50;108541;1278;21961;-84
2022/10/29 00:06:10;;;;;;;52.70;47.80;;;;;;;13.33;69.83;100872.70;108618;1279;21959;-84
2022/10/29 00:08:39;;;;;;;46.50;42.30;;;;;;;13.32;69.77;100872.20;108519;1275;21981;-83
2022/10/29 00:11:18;;;;;;;40.70;37.00;;;;;;;13.31;69.68;100869.29;108076;1283;22887;-84
2022/10/29 00:13:47;;;;;;;51.70;46.80;;;;;;;13.29;69.68;100868.13;107628;1283;1010139;-84
2022/10/29 00:16:19;;;;;;;49.50;44.80;;;;;;;13.25;69.72;100869.82;108403;1283;21949;-83
2022/10/29 00:18:46;;;;;;;43.90;39.60;;;;;;;13.26;69.63;100873.65;108387;1283;21941;-84
2022/10/29 00:21:18;;;;;;;38.90;35.20;;;;;;;13.24;69.56;100873.04;108541;1280;21933;-83
2022/10/29 00:23:47;;;;;;;36.50;32.60;;;;;;;13.22;69.53;100870.65;108567;1272;21926;-83
2022/10/29 00:26:17;;;;;;;30.80;27.60;;;;;;;13.22;69.50;100873.48;108458;1281;22438;-85
2022/10/29 00:28:45;;;;;;;28.80;24.30;;;;;;;13.21;69.58;100870.54;108818;1276;21937;-82
2022/10/29 00:31:17;;;;;;;24.90;22.30;;;;;;;13.20;69.61;100871.80;108715;1277;21951;-84
2022/10/29 00:33:45;;;;;;;24.40;22.10;;;;;;;13.20;69.76;100873.88;108777;1272;22585;-82
2022/10/29 00:36:17;;;;;;;21.90;19.60;;;;;;;13.20;69.66;100872.84;108950;1275;21995;-85
2022/10/29 00:38:45;;;;;;;22.40;17.90;;;;;;;13.19;69.58;100870.77;108884;1276;21918;-85
2022/10/29 00:41:18;;;;;;;18.60;16.70;;;;;;;13.19;69.59;100869.73;109002;1274;21986;-85
2022/10/29 00:43:49;;;;;;;20.60;17.90;;;;;;;13.19;69.56;100868.19;108880;1275;22007;-85
2022/10/29 00:46:34;;;;;;;21.80;17.30;;;;;;;13.19;69.61;100859.60;108781;1275;23052;-83
2022/10/29 00:49:02;;;;;;;19.30;14.50;;;;;;;13.20;69.59;100862.89;108921;1273;22991;-83
2022/10/29 00:51:31;;;;;;;18.60;16.20;;;;;;;13.20;69.51;100862.00;108901;1275;23615;-83
2022/10/29 00:54:05;;;;;;;21.90;18.10;;;;;;;13.20;69.41;100861.83;108841;1275;23723;-84
2022/10/29 00:56:37;;;;;;;20.80;17.90;;;;;;;13.21;69.40;100861.64;108317;1281;23145;-82
2022/10/29 00:59:08;;;;;;;20.00;17.70;;;;;;;13.20;69.33;100861.33;108411;1280;21938;-85
2022/10/29 01:01:37;;;;;;;25.30;18.30;;;;;;;13.18;69.39;100861.75;108715;1277;21965;-84
2022/10/29 01:04:05;;;;;;;22.40;17.40;;;;;;;13.17;69.43;100863.21;108718;1273;23067;-84
2022/10/29 01:06:32;;;;;;;20.30;15.30;;;;;;;13.16;69.40;100860.21;108458;1281;22486;-83
2022/10/29 01:09:00;;;;;;;22.70;16.50;;;;;;;13.18;69.28;100858.27;107934;1286;22744;-84
2022/10/29 01:11:56;;;;;;;17.70;15.00;;;;;;;13.17;69.08;100852.18;108038;1285;21959;-83
2022/10/29 01:14:55;;;;;;;23.20;13.90;;;;;;;13.12;69.12;100845.88;108231;1280;21950;-84
2022/10/29 01:17:57;;;;;;;14.70;13.10;;;;;;;13.10;69.16;100841.79;108320;1272;23695;-83
2022/10/29 01:21:10;;;;;;;22.50;13.40;;;;;;;13.08;69.29;100840.98;108074;1280;21943;-82
2022/10/29 01:24:00;;;;;;;13.60;11.20;;;;;;;13.06;69.42;100839.34;108085;1283;23603;-83
2022/10/29 01:26:59;;;;;;;16.10;13.30;;;;;;;13.06;69.56;100839.15;108345;1281;23945;-83
2022/10/29 01:30:15;;;;;;;17.50;12.00;;;;;;;13.07;69.52;100841.73;108484;1268;21951;-83
2022/10/29 01:33:42;;;;;;;19.50;11.20;;;;;;;13.06;69.51;100834.77;108502;1281;23594;-84
2022/10/29 01:36:17;;;;;;;16.00;12.60;;;;;;;13.06;69.59;100831.98;108571;1280;21950;-83
2022/10/29 01:38:52;;;;;;;20.10;12.70;;;;;;;13.10;69.52;100830.09;108508;1282;22239;-85
2022/10/29 01:41:40;;;;;;;17.40;10.70;;;;;;;13.13;69.39;100831.20;108443;1280;21924;-85
2022/10/29 01:44:38;;;;;;;17.60;12.00;;;;;;;13.14;69.34;100831.48;107935;1287;21946;-82
2022/10/29 01:47:17;;;;;;;13.20;11.10;;;;;;;13.13;69.20;100832.05;107640;1292;21955;-83
2022/10/29 01:49:58;;;;;;;14.70;11.90;;;;;;;13.14;69.22;100833.23;107666;1292;21999;-83
2022/10/29 01:52:31;;;;;;;16.60;12.70;;;;;;;13.15;69.21;100831.81;107625;1292;23657;-83
2022/10/29 01:54:58;;;;;;;16.40;12.20;;;;;;;13.14;69.24;100828.86;108191;1273;23775;-83
2022/10/29 01:57:36;;;;;;;13.80;10.70;;;;;;;13.16;69.28;100827.38;108001;1283;22235;-82
2022/10/29 02:00:06;;;;;;;16.30;11.00;;;;;;;13.19;69.41;100824.33;108033;1283;21943;-79
2022/10/29 02:02:58;;;;;;;13.00;11.20;;;;;;;13.21;69.50;100819.84;108125;1281;23769;-79
2022/10/29 02:05:54;;;;;;;14.10;10.00;;;;;;;13.24;69.53;100814.65;108737;1274;23594;-80
2022/10/29 02:09:01;;;;;;;16.60;10.20;;;;;;;13.27;69.56;100818.21;109051;1272;21932;-80
2022/10/29 02:11:44;;;;;;;16.20;9.30;;;;;;;13.30;69.45;100816.70;109009;1274;21955;-82
2022/10/29 02:14:29;;;;;;;16.90;10.90;;;;;;;13.32;69.37;100816.63;109081;1272;21945;-83
2022/10/29 02:16:58;;;;;;;17.70;10.90;;;;;;;13.35;69.32;100820.17;108854;1271;22696;-83
2022/10/29 02:19:31;;;;;;;13.50;9.50;;;;;;;13.39;69.21;100825.77;108891;1274;21949;-82
2022/10/29 02:21:58;;;;;;;13.80;10.50;;;;;;;13.42;69.08;100822.69;108916;1274;21924;-82
2022/10/29 02:24:26;;;;;;;16.60;10.90;;;;;;;13.44;68.91;100822.05;108882;1273;24176;-82
2022/10/29 02:26:53;;;;;;;16.90;9.70;;;;;;;13.47;68.86;100822.30;108905;1274;21954;-82
2022/10/29 02:29:21;;;;;;;19.30;12.20;;;;;;;13.49;68.78;100820.83;108877;1266;22072;-81
2022/10/29 02:31:48;;;;;;;16.50;10.30;;;;;;;13.51;68.75;100820.38;108588;1280;21959;-81
2022/10/29 02:34:16;;;;;;;12.70;9.80;;;;;;;13.54;68.72;100819.04;108651;1278;21948;-81
2022/10/29 02:36:43;;;;;;;15.80;10.70;;;;;;;13.57;68.61;100815.05;108635;1278;22728;-81
2022/10/29 02:39:11;;;;;;;13.90;10.30;;;;;;;13.59;68.41;100817.25;108671;1277;22778;-81
2022/10/29 02:41:38;;;;;;;13.70;10.90;;;;;;;13.60;68.46;100810.19;108473;1277;21917;-81
2022/10/29 02:44:05;;;;;;;14.80;9.70;;;;;;;13.60;68.35;100807.38;108435;1277;23052;-80
2022/10/29 02:46:38;;;;;;;14.10;10.50;;;;;;;13.60;68.26;100811.79;108651;1278;22997;-80
2022/10/29 02:49:06;;;;;;;19.10;12.00;;;;;;;13.59;68.26;100809.55;108667;1275;22497;-80
2022/10/29 02:51:34;;;;;;;18.00;12.10;;;;;;;13.57;68.16;100804.21;108245;1279;22179;-81
2022/10/29 02:54:01;;;;;;;18.50;12.60;;;;;;;13.54;68.11;100799.77;108326;1280;21937;-82
2022/10/29 02:56:29;;;;;;;14.30;11.90;;;;;;;13.52;67.98;100795.51;108270;1280;21949;-77
2022/10/29 02:58:56;;;;;;;15.80;12.10;;;;;;;13.49;67.95;100792.67;108097;1281;21969;-77
2022/10/29 03:01:23;;;;;;;16.80;13.80;;;;;;;13.47;68.15;100781.90;108009;1286;22896;-80
2022/10/29 03:03:51;;;;;;;19.20;13.80;;;;;;;13.46;68.19;100779.48;108010;1285;24384;-81
2022/10/29 03:06:20;;;;;;;20.60;14.30;;;;;;;13.44;68.07;100787.30;108148;1285;23645;-82
2022/10/29 03:08:47;;;;;;;17.40;13.50;;;;;;;13.40;68.10;100786.07;108212;1283;21946;-81
2022/10/29 03:11:15;;;;;;;20.00;12.90;;;;;;;13.37;68.14;100780.78;108540;1276;23079;-82
2022/10/29 03:13:42;;;;;;;22.40;12.40;;;;;;;13.33;68.22;100780.59;108611;1277;21963;-82
2022/10/29 03:16:10;;;;;;;15.70;11.30;;;;;;;13.30;68.35;100780.86;108489;1280;21955;-82
2022/10/29 03:18:37;;;;;;;18.00;12.00;;;;;;;13.29;68.56;100780.02;108488;1278;21987;-82
2022/10/29 03:21:04;;;;;;;11.90;10.60;;;;;;;13.31;68.73;100781.52;108807;1274;21960;-81
2022/10/29 03:23:32;;;;;;;14.10;10.80;;;;;;;13.33;68.71;100780.55;108794;1275;21956;-82
2022/10/29 03:25:59;;;;;;;15.80;11.40;;;;;;;13.33;68.62;100769.01;108888;1274;22465;-81
2022/10/29 03:28:27;;;;;;;13.70;9.60;;;;;;;13.34;68.59;100773.75;109073;1258;22693;-82
2022/10/29 03:30:54;;;;;;;14.90;10.20;;;;;;;13.34;68.69;100785.98;108876;1272;21945;-81
2022/10/29 03:33:25;;;;;;;21.30;11.50;;;;;;;13.35;68.75;100795.39;108576;1272;22360;-81
2022/10/29 03:36:02;;;;;;;15.80;10.10;;;;;;;13.36;68.72;100802.85;108868;1272;21928;-81
2022/10/29 03:38:30;;;;;;;19.10;11.10;;;;;;;13.35;68.74;100797.64;108645;1272;21941;-82
2022/10/29 03:40:58;;;;;;;16.70;9.40;;;;;;;13.36;68.80;100800.73;108817;1272;23071;-82
2022/10/29 03:43:25;;;;;;;14.40;8.40;;;;;;;13.37;68.83;100798.40;108748;1272;24357;-82
2022/10/29 03:45:56;;;;;;;15.00;9.60;;;;;;;13.39;68.85;100801.14;108631;1276;24138;-82
2022/10/29 03:48:24;;;;;;;13.70;9.80;;;;;;;13.38;68.63;100798.39;109006;1272;23735;-82
2022/10/29 03:50:56;;;;;;;17.10;10.50;;;;;;;13.36;68.72;100798.98;108861;1272;21961;-82
2022/10/29 03:53:25;;;;;;;16.00;9.50;;;;;;;13.37;68.70;100793.20;108503;1278;23106;-83
2022/10/29 03:55:53;;;;;;;15.30;9.90;;;;;;;13.38;68.63;100795.08;108545;1280;21945;-81
2022/10/29 03:58:22;;;;;;;14.00;10.50;;;;;;;13.38;68.61;100795.94;108554;1278;21976;-81
2022/10/29 04:01:05;;;;;;;13.90;9.90;;;;;;;13.37;68.54;100799.98;108365;1280;23705;-81
2022/10/29 04:03:35;;;;;;;19.90;11.20;;;;;;;13.33;68.40;100799.83;108261;1280;21971;-81
2022/10/29 04:06:13;;;;;;;16.80;11.00;;;;;;;13.28;68.41;100797.55;108228;1280;22405;-82
2022/10/29 04:08:41;;;;;;;17.30;9.80;;;;;;;13.25;68.49;100799.79;108145;1283;22399;-82
2022/10/29 04:11:12;;;;;;;18.10;9.60;;;;;;;13.23;68.73;100809.45;108590;1272;24398;-82
2022/10/29 04:13:39;;;;;;;17.30;10.20;;;;;;;13.23;68.88;100821.52;108789;1271;21955;-82
2022/10/29 04:16:06;;;;;;;11.80;8.50;;;;;;;13.24;68.92;100824.42;108981;1272;21927;-82
2022/10/29 04:18:37;;;;;;;12.10;8.60;;;;;;;13.23;68.96;100818.35;108754;1272;21935;-83
2022/10/29 04:21:05;;;;;;;15.10;8.70;;;;;;;13.28;69.11;100816.23;108875;1272;22801;-83
2022/10/29 04:23:52;;;;;;;11.20;9.40;;;;;;;13.31;69.24;100828.02;108981;1272;21921;-82
2022/10/29 04:26:42;;;;;;;17.70;8.80;;;;;;;13.35;69.29;100843.42;108534;1272;23100;-82
2022/10/29 04:29:29;;;;;;;24.00;8.70;;;;;;;13.38;69.32;100842.42;108979;1272;23571;-81
2022/10/29 04:31:57;;;;;;;14.10;8.40;;;;;;;13.44;69.38;100836.77;109155;1266;21931;-84
2022/10/29 04:34:24;;;;;;;10.60;7.90;;;;;;;13.52;69.39;100838.70;108964;1272;21959;-83
2022/10/29 04:36:52;;;;;;;15.60;9.10;;;;;;;13.58;69.21;100842.98;109026;1272;21935;-83
2022/10/29 04:39:19;;;;;;;14.20;8.70;;;;;;;13.64;69.13;100844.68;108591;1277;21936;-82
2022/10/29 04:41:50;;;;;;;14.80;9.50;;;;;;;13.69;69.08;100839.37;108771;1274;22062;-83
2022/10/29 04:44:18;;;;;;;14.40;8.70;;;;;;;13.74;68.83;100836.00;108726;1280;22727;-83
2022/10/29 04:46:46;;;;;;;18.40;11.40;;;;;;;13.76;68.41;100829.96;108711;1280;22215;-83
2022/10/29 04:49:14;;;;;;;11.40;9.30;;;;;;;13.75;68.28;100823.36;108757;1278;21948;-83
2022/10/29 04:51:41;;;;;;;18.80;10.20;;;;;;;13.75;68.29;100815.70;108632;1278;21949;-82
2022/10/29 04:54:09;;;;;;;15.10;8.80;;;;;;;13.75;68.32;100817.58;108572;1275;23684;-82
2022/10/29 04:56:37;;;;;;;13.30;8.30;;;;;;;13.77;68.33;100819.08;108755;1277;23768;-82
2022/10/29 04:59:04;;;;;;;11.10;8.80;;;;;;;13.81;68.33;100823.65;108483;1277;21930;-83
2022/10/29 05:01:31;;;;;;;14.20;9.30;;;;;;;13.83;68.33;100829.66;108737;1277;23065;-83
2022/10/29 05:03:59;;;;;;;16.50;9.20;;;;;;;13.85;68.25;100826.61;108497;1272;23880;-82
2022/10/29 05:06:27;;;;;;;13.50;8.90;;;;;;;13.87;68.14;100827.41;108971;1274;22244;-82
2022/10/29 05:08:54;;;;;;;12.10;7.80;;;;;;;13.88;68.10;100827.54;108779;1273;21939;-82
2022/10/29 05:11:22;;;;;;;13.10;7.80;;;;;;;13.89;68.01;100834.12;108843;1272;23825;-85
2022/10/29 05:13:49;;;;;;;15.10;8.10;;;;;;;13.89;67.96;100837.08;109060;1272;21960;-87
2022/10/29 05:16:17;;;;;;;14.60;8.90;;;;;;;13.89;67.92;100839.37;108986;1275;21929;-85
2022/10/29 05:18:44;;;;;;;18.70;9.40;;;;;;;13.89;67.80;100841.28;109206;1272;21909;-86
2022/10/29 05:21:11;;;;;;;11.50;8.60;;;;;;;13.90;67.72;100843.89;109138;1275;22705;-85
2022/10/29 05:23:39;;;;;;;11.60;8.70;;;;;;;13.90;67.72;100848.09;109275;1272;21907;-84
2022/10/29 05:26:06;;;;;;;12.10;8.20;;;;;;;13.89;67.54;100852.68;109171;1272;21927;-85
2022/10/29 05:28:34;;;;;;;18.20;10.30;;;;;;;13.88;67.56;100850.64;109190;1275;22689;-86
2022/10/29 05:31:01;;;;;;;12.80;8.80;;;;;;;13.87;67.62;100853.63;109064;1275;21887;-85
2022/10/29 05:33:29;;;;;;;18.00;10.80;;;;;;;13.88;67.67;100852.89;109367;1260;21923;-85
2022/10/29 05:35:59;;;;;;;14.00;10.50;;;;;;;13.90;67.77;100855.63;109198;1272;21935;-85
2022/10/29 05:38:27;;;;;;;20.10;10.80;;;;;;;13.91;67.78;100856.11;109145;1274;22375;-85
2022/10/29 05:40:58;;;;;;;19.00;11.00;;;;;;;13.91;67.88;100854.52;109157;1274;21927;-85
2022/10/29 05:43:25;;;;;;;14.80;10.50;;;;;;;13.92;67.88;100854.10;109044;1272;22406;-84
2022/10/29 05:45:53;;;;;;;18.00;9.80;;;;;;;13.93;67.85;100850.58;109313;1274;21944;-85
2022/10/29 05:48:20;;;;;;;16.90;9.80;;;;;;;13.95;67.91;100859.08;109093;1270;23613;-81
2022/10/29 05:50:48;;;;;;;15.70;9.90;;;;;;;13.96;67.98;100863.06;108731;1272;23670;-85
2022/10/29 05:53:15;;;;;;;19.10;9.60;;;;;;;13.96;67.99;100863.91;108976;1272;21944;-85
2022/10/29 05:55:43;;;;;;;17.00;9.10;;;;;;;13.97;68.01;100868.26;109340;1272;21916;-88
2022/10/29 05:58:12;;;;;;;16.30;8.90;;;;;;;13.98;68.02;100871.20;109089;1274;21944;-84
2022/10/29 06:00:43;;;;;;;11.50;8.60;;;;;;;13.97;68.07;100870.70;109068;1273;21932;-85
2022/10/29 06:03:20;;;;;;;19.40;9.80;;;;;;;13.98;68.28;100869.62;109050;1263;21960;-84
2022/10/29 06:05:49;;;;;;;18.60;9.10;;;;;;;14.00;68.35;100871.10;108994;1274;23628;-84
2022/10/29 06:37:17;;;;;;;17.10;9.00;;;;;;;15.61;64.34;100896.27;108888;1271;550369;-87
2022/10/29 06:41:27;;;;;;;;;;;;;;;;;;;;;
2022/10/29 06:46:37;;;;;;;;;;;;;;;;;;;;;
2022/10/29 06:49:31;;;;;;;14.50;8.60;;;;;;;15.40;65.63;100917.02;108736;1280;23706;-86
2022/10/29 06:52:20;;;;;;;13.60;7.70;;;;;;;15.43;66.06;100913.04;108615;1280;21944;-87
2022/10/29 06:55:18;;;;;;;;;;;;;;;;;;;;;
2022/10/29 06:58:05;;;;;;;16.20;8.40;;;;;;;15.50;66.21;100910.42;108533;1280;21978;-85
2022/10/29 07:06:50;;;;;;;;;;;;;;;;;;;;;
2022/10/29 07:24:21;;;;;;;;;;;;;;;;;;;;;
2022/10/29 07:28:31;;;;;;;;;;;;;;;;;;;;;
2022/10/29 07:32:46;;;;;;;;;;;;;;;;;;;;;
2022/10/29 07:36:07;;;;;;;21.50;9.60;;;;;;;17.10;62.04;100921.23;109099;1271;21945;-77
2022/10/29 07:38:35;;;;;;;18.40;9.00;;;;;;;17.11;62.30;100922.72;108731;1270;21996;-79
2022/10/29 07:41:10;;;;;;;14.30;7.80;;;;;;;17.10;62.34;100921.36;108537;1271;23629;-78
2022/10/29 07:44:13;;;;;;;11.20;7.60;;;;;;;17.04;62.65;100922.11;108538;1277;21940;-79
2022/10/29 07:47:00;;;;;;;15.70;7.50;;;;;;;17.03;62.85;100920.20;108094;1283;23116;-82
2022/10/29 07:50:13;;;;;;;16.60;9.00;;;;;;;17.01;63.19;100921.36;108504;1279;23691;-81
2022/10/29 07:53:32;;;;;;;;;;;;;;;;;;;;;
2022/10/29 07:57:12;;;;;;;13.50;7.80;;;;;;;17.07;63.76;100920.48;108532;1279;22760;-79
2022/10/29 08:00:21;;;;;;;11.90;8.50;;;;;;;17.13;63.76;100920.34;108377;1279;23640;-78
2022/10/29 08:02:56;;;;;;;21.30;9.70;;;;;;;17.18;63.59;100921.31;108427;1273;21963;-80
2022/10/29 08:05:48;;;;;;;18.60;9.00;;;;;;;17.23;63.47;100920.34;108690;1273;22003;-81
2022/10/29 08:08:40;;;;;;;20.40;8.20;;;;;;;17.24;63.48;100915.17;108800;1268;21971;-86
2022/10/29 08:11:48;;;;;;;17.00;9.30;;;;;;;17.25;63.58;100918.30;109668;1254;23558;-79
2022/10/29 08:14:30;;;;;;;16.70;8.90;;;;;;;17.30;63.65;100916.73;111189;1243;21909;-79
2022/10/29 08:17:28;;;;;;;19.90;9.20;;;;;;;17.29;63.42;100921.88;111278;1242;23577;-79
2022/10/29 08:20:01;;;;;;;17.90;8.40;;;;;;;17.30;63.40;100928.52;111584;1241;22701;-79
2022/10/29 08:22:34;;;;;;;12.70;8.10;;;;;;;17.30;63.33;100932.55;111267;1243;23612;-78
2022/10/29 08:25:05;;;;;;;18.90;8.60;;;;;;;17.31;63.42;100941.52;111404;1243;23023;-77
2022/10/29 08:27:33;;;;;;;14.00;10.40;;;;;;;17.32;63.46;100948.46;111237;1242;23565;-80
2022/10/29 08:30:02;;;;;;;14.90;9.20;;;;;;;17.36;63.63;100949.50;110964;1248;23578;-79
2022/10/29 08:32:32;;;;;;;27.50;11.90;;;;;;;17.42;63.67;100944.95;110705;1248;21952;-78
2022/10/29 08:35:02;;;;;;;16.40;9.10;;;;;;;17.46;63.57;100948.59;110693;1248;24259;-79
2022/10/29 08:37:31;;;;;;;20.30;9.80;;;;;;;17.53;63.75;100955.58;110616;1254;21921;-78
2022/10/29 08:40:06;;;;;;;15.20;8.60;;;;;;;17.66;64.00;100958.88;110302;1257;21912;-78
2022/10/29 08:43:08;;;;;;;15.90;8.60;;;;;;;17.79;63.93;100954.24;109987;1256;21941;-79
2022/10/29 08:46:44;;;;;;;15.90;9.00;;;;;;;17.88;63.55;100958.15;109809;1260;21927;-79
2022/10/29 08:49:22;;;;;;;18.90;10.60;;;;;;;17.92;63.17;100960.89;110182;1257;24381;-78
2022/10/29 08:52:02;;;;;;;19.50;13.30;;;;;;;17.93;62.79;100962.92;110080;1257;23055;-78
2022/10/29 08:54:36;;;;;;;18.20;11.10;;;;;;;17.90;62.61;100960.16;110013;1257;21979;-78
2022/10/29 08:57:20;;;;;;;16.10;10.30;;;;;;;17.86;62.75;100966.36;110413;1254;21917;-78
2022/10/29 09:00:12;;;;;;;16.10;8.80;;;;;;;17.84;62.95;100965.23;110871;1248;21937;-80
2022/10/29 09:02:42;;;;;;;18.40;8.80;;;;;;;17.81;63.08;100961.14;110813;1248;21925;-79
2022/10/29 09:07:40;;;;;;;;;;;;;;;;;;;;;
2022/10/29 09:11:54;;;;;;;16.90;9.80;;;;;;;17.76;63.73;100959.66;110712;1251;22701;-78
2022/10/29 09:15:41;;;;;;;17.00;9.80;;;;;;;17.78;63.70;100968.88;110957;1251;21915;-78
2022/10/29 09:18:40;;;;;;;20.70;9.60;;;;;;;17.84;63.85;100966.80;110663;1251;21942;-77
2022/10/29 09:21:28;;;;;;;22.10;10.60;;;;;;;17.91;63.87;100962.19;110879;1248;21986;-78
2022/10/29 09:24:04;;;;;;;19.00;13.20;;;;;;;17.98;63.84;100963.20;110827;1251;21908;-79
2022/10/29 09:26:41;;;;;;;21.50;13.80;;;;;;;18.06;63.80;100968.36;110839;1252;23010;-79
2022/10/29 09:29:44;;;;;;;17.60;11.70;;;;;;;18.13;63.83;100967.77;111140;1242;23684;-79
2022/10/29 09:32:27;;;;;;;15.70;10.10;;;;;;;18.19;63.87;100971.95;111554;1242;21912;-80
2022/10/29 09:35:02;;;;;;;21.50;10.50;;;;;;;18.26;63.78;100973.84;111320;1243;21916;-80
2022/10/29 09:37:55;;;;;;;21.00;10.70;;;;;;;18.35;63.84;100975.06;111759;1243;21903;-78
2022/10/29 09:40:58;;;;;;;14.90;9.70;;;;;;;18.46;63.90;100968.09;111213;1242;24370;-79
2022/10/29 09:43:52;;;;;;;17.60;8.80;;;;;;;18.58;63.74;100960.83;111237;1243;21953;-80
2022/10/29 09:46:45;;;;;;;18.80;8.30;;;;;;;18.71;63.57;100958.39;111142;1242;21916;-78
2022/10/29 09:49:41;;;;;;;23.50;9.50;;;;;;;18.84;63.10;100958.54;111499;1245;21919;-78
2022/10/29 09:52:18;;;;;;;20.50;8.50;;;;;;;18.96;63.08;100954.75;111450;1242;21923;-78
2022/10/29 09:54:51;;;;;;;18.40;9.20;;;;;;;19.11;62.73;100963.90;111499;1242;22042;-78
2022/10/29 09:57:29;;;;;;;13.80;8.70;;;;;;;19.24;62.37;100963.92;111186;1242;23531;-78
2022/10/29 10:00:14;;;;;;;17.40;9.40;;;;;;;19.38;62.06;100963.39;111520;1240;21934;-79
2022/10/29 10:03:17;;;;;;;14.50;8.30;;;;;;;19.51;61.57;100965.33;111355;1242;21929;-79
2022/10/29 10:06:07;;;;;;;15.60;8.70;;;;;;;19.61;61.55;100967.02;111542;1241;23046;-79
2022/10/29 10:09:03;;;;;;;20.50;8.70;;;;;;;19.73;60.96;100965.86;111484;1239;21903;-79
2022/10/29 10:11:41;;;;;;;14.80;8.40;;;;;;;19.83;60.46;100963.84;111512;1242;22995;-78
2022/10/29 10:14:20;;;;;;;15.50;8.30;;;;;;;19.93;60.09;100961.04;111597;1242;22667;-78
2022/10/29 10:17:05;;;;;;;14.70;7.10;;;;;;;20.03;59.71;100957.00;111360;1242;21907;-79
2022/10/29 10:19:47;;;;;;;15.60;7.30;;;;;;;20.14;59.32;100950.56;111697;1242;22955;-82
2022/10/29 10:22:20;;;;;;;14.60;7.80;;;;;;;20.32;58.91;100943.16;111781;1243;21911;-79
2022/10/29 10:25:51;;;;;;;17.70;7.90;;;;;;;20.45;58.33;100950.03;111478;1243;21899;-78
2022/10/29 10:28:36;;;;;;;15.00;7.80;;;;;;;20.39;57.89;100945.16;111099;1248;21912;-78
2022/10/29 10:31:15;;;;;;;13.90;6.70;;;;;;;20.46;57.94;100945.01;110858;1249;22021;-77
2022/10/29 10:34:13;;;;;;;20.80;8.00;;;;;;;20.54;57.61;100952.38;110783;1249;22138;-80
2022/10/29 10:36:49;;;;;;;19.10;7.60;;;;;;;20.62;57.14;100959.30;110461;1254;23805;-78
2022/10/29 10:39:35;;;;;;;18.00;8.80;;;;;;;20.70;56.67;100960.01;110386;1254;21919;-79
2022/10/29 10:42:16;;;;;;;15.20;8.30;;;;;;;20.72;56.45;100955.63;109849;1255;21933;-78
2022/10/29 10:44:59;;;;;;;14.00;6.80;;;;;;;20.72;56.34;100951.73;109868;1259;21948;-78
2022/10/29 10:47:35;;;;;;;11.40;6.30;;;;;;;20.74;56.37;100954.91;110040;1260;21926;-79
2022/10/29 10:50:22;;;;;;;12.60;7.00;;;;;;;20.71;56.01;100956.89;109431;1265;22211;-78
2022/10/29 10:52:56;;;;;;;27.90;23.90;;;;;;;20.62;55.98;100950.84;109385;1265;21951;-78
2022/10/29 10:55:37;;;;;;;15.60;9.80;;;;;;;20.52;56.11;100948.82;109850;1260;23697;-79
2022/10/29 10:58:37;;;;;;;14.60;8.00;;;;;;;20.45;56.20;100946.29;109807;1263;21931;-78
2022/10/29 11:01:19;;;;;;;16.90;8.60;;;;;;;20.42;56.21;100952.02;110952;1248;22038;-78
2022/10/29 11:04:09;;;;;;;13.70;7.60;;;;;;;20.38;56.17;100948.27;111116;1248;23023;-79
2022/10/29 11:06:42;;;;;;;14.50;7.50;;;;;;;20.34;56.24;100943.20;110802;1251;21952;-78
2022/10/29 11:09:35;;;;;;;13.90;7.50;;;;;;;20.34;56.41;100947.64;110673;1251;22128;-78
2022/10/29 11:12:18;;;;;;;13.70;7.10;;;;;;;20.31;56.28;100947.33;110686;1252;24284;-80
2022/10/29 11:15:14;;;;;;;11.90;6.30;;;;;;;20.25;56.34;100939.73;110877;1249;21950;-79
2022/10/29 11:18:00;;;;;;;13.40;7.60;;;;;;;20.23;56.67;100938.61;111104;1248;25011;-78
2022/10/29 11:20:35;;;;;;;11.60;6.60;;;;;;;20.21;56.63;100937.20;111131;1246;21909;-79
2022/10/29 11:23:53;;;;;;;13.70;7.70;;;;;;;20.15;56.52;100936.58;110780;1248;23034;-78
2022/10/29 11:26:36;;;;;;;20.10;8.20;;;;;;;20.05;56.68;100939.36;111025;1251;21913;-79
2022/10/29 11:29:25;;;;;;;14.90;7.20;;;;;;;20.01;56.67;100939.45;110310;1258;23041;-78
2022/10/29 11:32:12;;;;;;;14.30;8.00;;;;;;;19.95;56.64;100941.31;109802;1260;23643;-78
2022/10/29 11:35:28;;;;;;;15.80;8.00;;;;;;;19.90;56.94;100935.61;110028;1260;23232;-79
2022/10/29 11:38:54;;;;;;;15.00;8.70;;;;;;;19.85;57.18;100932.75;109822;1260;21957;-78
2022/10/29 11:42:45;;;;;;;18.70;10.60;;;;;;;19.81;57.54;100925.96;109339;1266;21946;-77
2022/10/29 11:46:29;;;;;;;16.60;10.70;;;;;;;19.76;57.66;100926.48;109476;1265;21967;-79
2022/10/29 11:50:35;;;;;;;24.50;10.30;;;;;;;19.67;57.85;100924.20;108945;1265;21927;-79
2022/10/29 11:54:17;;;;;;;15.20;8.20;;;;;;;19.57;58.07;100919.23;108430;1274;24315;-81
2022/10/29 11:57:42;;;;;;;26.90;15.60;;;;;;;19.56;58.17;100918.59;108679;1272;21948;-78
2022/10/29 12:01:28;;;;;;;12.70;9.20;;;;;;;19.53;58.21;100930.26;108819;1271;22018;-83
2022/10/29 12:04:50;;;;;;;18.20;8.80;;;;;;;19.52;58.42;100933.69;108568;1269;22181;-79
2022/10/29 12:07:47;;;;;;;13.40;9.10;;;;;;;19.48;58.62;100921.23;108454;1275;23729;-78
2022/10/29 12:10:51;;;;;;;18.50;9.20;;;;;;;19.46;58.75;100926.33;108625;1270;21943;-79
2022/10/29 12:14:24;;;;;;;15.10;8.40;;;;;;;19.40;58.96;100931.68;108525;1277;21949;-83
2022/10/29 12:18:50;;;;;;;;;;;;;;;;;;;;;
2022/10/29 12:22:22;;;;;;;;;;;;;;;;;;;;;
2022/10/29 12:25:39;;;;;;;14.50;8.60;;;;;;;19.32;59.17;100912.26;109301;1268;22512;-78
2022/10/29 12:28:32;;;;;;;15.00;8.80;;;;;;;19.32;59.16;100913.63;109327;1268;21956;-83
2022/10/29 12:31:43;;;;;;;14.50;7.80;;;;;;;19.33;59.40;100916.22;109306;1268;21902;-81
2022/10/29 12:35:13;;;;;;;;;;;;;;;;;;;;;
2022/10/29 12:38:42;;;;;;;14.20;8.50;;;;;;;19.29;59.28;100914.73;109221;1271;21942;-83
2022/10/29 12:41:47;;;;;;;21.50;9.60;;;;;;;19.25;59.43;100917.30;109124;1269;21924;-86
2022/10/29 12:45:50;;;;;;;18.20;10.20;;;;;;;19.23;59.59;100917.02;109669;1263;22196;-82
2022/10/29 12:49:23;;;;;;;16.60;9.60;;;;;;;19.19;59.96;100911.50;110105;1260;22075;-80
2022/10/29 12:56:39;;;;;;;21.40;12.10;;;;;;;19.23;60.19;100908.98;109082;1272;21946;-80
2022/10/29 12:59:48;;;;;;;35.70;31.40;;;;;;;19.25;60.21;100916.41;108943;1271;21953;-79
2022/10/29 13:02:39;;;;;;;18.20;9.40;;;;;;;19.31;60.27;100916.72;108562;1272;22274;-79
2022/10/29 13:05:32;;;;;;;17.10;9.10;;;;;;;19.33;60.28;100923.80;108867;1261;24379;-79
2022/10/29 13:08:17;;;;;;;15.80;8.40;;;;;;;19.36;59.93;100922.05;109012;1270;21924;-80
2022/10/29 13:10:57;;;;;;;16.70;8.00;;;;;;;19.36;60.01;100920.45;109153;1268;23675;-80
2022/10/29 13:13:58;;;;;;;19.40;9.50;;;;;;;19.37;60.07;100915.80;109366;1263;22677;-81
2022/10/29 13:16:51;;;;;;;20.00;9.90;;;;;;;19.38;60.15;100917.69;109593;1265;23693;-79
2022/10/29 13:19:57;;;;;;;19.20;10.40;;;;;;;19.36;60.02;100917.78;109687;1263;23065;-80
2022/10/29 13:23:01;;;;;;;16.60;10.20;;;;;;;19.36;60.04;100910.04;109391;1266;23684;-82
2022/10/29 13:26:21;;;;;;;21.10;11.40;;;;;;;19.35;60.17;100910.27;109168;1266;21935;-81
2022/10/29 13:32:47;;;;;;;15.10;8.70;;;;;;;19.34;60.60;100904.48;109484;1265;21953;-81
2022/10/29 13:35:37;;;;;;;;;;;;;;;19.39;60.53;100901.91;109181;1264;23581;-81
2022/10/29 13:38:18;;;;;;;12.40;8.50;;;;;;;19.31;60.68;100901.90;109057;1268;24306;-79
2022/10/29 13:41:23;;;;;;;18.30;9.70;;;;;;;19.34;60.87;100902.73;108953;1272;22894;-80
2022/10/29 13:44:29;;;;;;;16.30;9.00;;;;;;;19.40;60.79;100907.51;108803;1274;24021;-80
2022/10/29 13:47:20;;;;;;;17.10;9.60;;;;;;;19.44;60.70;100906.34;108750;1272;23165;-80
2022/10/29 13:50:15;;;;;;;;;;;;;;;;;;;;;